createdAt,value
2019-06-27T00:00:40.406Z,24.87
2019-06-27T00:01:40.402Z,24.88
2019-06-27T00:02:40.398Z,24.85
2019-06-27T00:03:40.392Z,24.88
2019-06-27T00:04:40.378Z,24.68
2019-06-27T00:05:40.380Z,24.81
2019-06-27T00:06:40.370Z,24.78
2019-06-27T00:07:40.365Z,24.78
2019-06-27T00:08:40.471Z,24.84
2019-06-27T00:10:08.034Z,24.78
2019-06-27T00:10:40.353Z,24.84
2019-06-27T00:11:40.344Z,24.84
2019-06-27T00:12:40.338Z,24.91
2019-06-27T00:13:40.333Z,24.87
2019-06-27T00:14:40.322Z,24.83
2019-06-27T00:15:40.327Z,24.77
2019-06-27T00:16:40.320Z,24.88
2019-06-27T00:17:40.310Z,24.84
2019-06-27T00:18:40.310Z,24.78
2019-06-27T00:19:40.296Z,24.83
2019-06-27T00:20:40.288Z,24.69
2019-06-27T00:21:40.286Z,24.78
2019-06-27T00:23:16.036Z,24.69
2019-06-27T00:23:40.265Z,24.69
2019-06-27T00:24:40.259Z,24.68
2019-06-27T00:25:40.255Z,24.69
2019-06-27T00:26:55.865Z,24.69
2019-06-27T00:29:13.943Z,24.68
2019-06-27T00:30:13.884Z,24.65
2019-06-27T00:32:08.890Z,24.67
2019-06-27T00:33:08.878Z,24.61
2019-06-27T00:35:03.748Z,24.57
2019-06-27T00:36:03.714Z,24.73
2019-06-27T00:37:58.610Z,24.71
2019-06-27T00:38:58.568Z,24.71
2019-06-27T00:40:53.224Z,24.68
2019-06-27T00:41:53.174Z,24.53
2019-06-27T00:43:48.058Z,24.55
2019-06-27T00:44:48.026Z,24.58
2019-06-27T00:46:42.918Z,24.61
2019-06-27T00:47:42.882Z,24.53
2019-06-27T00:49:37.772Z,24.49
2019-06-27T00:50:37.746Z,24.43
2019-06-27T00:52:31.862Z,24.50
2019-06-27T00:53:31.844Z,24.52
2019-06-27T00:55:26.718Z,24.53
2019-06-27T00:56:26.701Z,24.53
2019-06-27T00:58:21.614Z,24.60
2019-06-27T00:59:21.561Z,24.55
2019-06-27T01:01:16.050Z,24.60
2019-06-27T01:02:16.022Z,24.60
2019-06-27T01:04:10.960Z,24.64
2019-06-27T01:05:10.905Z,24.53
2019-06-27T01:07:05.790Z,24.65
2019-06-27T01:08:05.764Z,24.60
2019-06-27T01:10:01.355Z,24.53
2019-06-27T01:14:03.182Z,24.58
2019-06-27T01:15:03.167Z,24.57
2019-06-27T01:16:59.018Z,24.52
2019-06-27T01:17:58.992Z,24.52
2019-06-27T01:19:53.904Z,24.46
2019-06-27T01:20:53.906Z,24.49
2019-06-27T01:22:48.729Z,24.50
2019-06-27T01:23:48.701Z,24.50
2019-06-27T01:25:43.602Z,24.52
2019-06-27T01:26:43.570Z,24.45
2019-06-27T01:28:38.455Z,24.43
2019-06-27T01:29:38.425Z,24.42
2019-06-27T01:31:34.320Z,24.40
2019-06-27T01:32:34.291Z,24.35
2019-06-27T01:34:29.177Z,24.39
2019-06-27T01:35:29.141Z,24.34
2019-06-27T01:37:24.031Z,24.34
2019-06-27T01:38:23.996Z,24.37
2019-06-27T01:40:18.755Z,24.28
2019-06-27T01:41:18.731Z,24.32
2019-06-27T01:43:13.496Z,24.25
2019-06-27T01:44:13.459Z,24.27
2019-06-27T01:46:08.343Z,24.22
2019-06-27T01:47:08.320Z,24.24
2019-06-27T01:49:04.213Z,24.30
2019-06-27T01:50:04.246Z,24.25
2019-06-27T01:51:59.065Z,24.40
2019-06-27T01:52:59.034Z,24.39
2019-06-27T01:54:53.942Z,24.30
2019-06-27T01:55:53.888Z,24.32
2019-06-27T01:57:48.772Z,24.22
2019-06-27T01:58:48.734Z,24.31
2019-06-27T02:00:43.615Z,24.21
2019-06-27T02:01:43.595Z,24.20
2019-06-27T02:03:38.482Z,24.18
2019-06-27T02:04:38.448Z,24.24
2019-06-27T02:06:33.333Z,24.15
2019-06-27T02:07:33.330Z,24.10
2019-06-27T02:09:28.183Z,24.15
2019-06-27T02:10:28.157Z,24.09
2019-06-27T02:12:23.042Z,24.08
2019-06-27T02:13:23.014Z,24.10
2019-06-27T02:15:17.902Z,24.10
2019-06-27T02:16:17.877Z,24.08
2019-06-27T02:18:13.761Z,24.09
2019-06-27T02:19:13.719Z,24.06
2019-06-27T02:21:08.607Z,24.09
2019-06-27T02:22:08.580Z,24.10
2019-06-27T02:24:03.528Z,24.06
2019-06-27T02:25:03.435Z,24.03
2019-06-27T02:26:59.309Z,23.94
2019-06-27T02:28:04.268Z,23.95
2019-06-27T02:29:54.170Z,23.93
2019-06-27T02:30:54.157Z,23.91
2019-06-27T02:32:49.026Z,23.93
2019-06-27T02:33:49.004Z,23.97
2019-06-27T02:35:43.918Z,23.95
2019-06-27T02:36:43.859Z,23.98
2019-06-27T02:38:39.047Z,23.95
2019-06-27T02:39:39.008Z,23.94
2019-06-27T02:41:33.913Z,23.88
2019-06-27T02:42:33.871Z,23.95
2019-06-27T02:44:28.751Z,23.93
2019-06-27T02:45:28.723Z,23.98
2019-06-27T02:47:24.613Z,23.93
2019-06-27T02:48:24.584Z,23.90
2019-06-27T02:50:20.087Z,23.94
2019-06-27T02:51:20.063Z,23.88
2019-06-27T02:53:14.957Z,24.02
2019-06-27T02:54:14.915Z,23.98
2019-06-27T02:56:09.788Z,23.91
2019-06-27T02:57:09.770Z,23.87
2019-06-27T02:59:04.675Z,23.88
2019-06-27T03:00:04.754Z,24.00
2019-06-27T03:02:00.510Z,23.94
2019-06-27T03:03:00.482Z,23.97
2019-06-27T03:04:55.364Z,23.97
2019-06-27T03:05:55.335Z,24.03
2019-06-27T03:07:50.212Z,23.93
2019-06-27T03:08:50.196Z,23.93
2019-06-27T03:10:45.082Z,23.90
2019-06-27T03:11:45.034Z,23.91
2019-06-27T03:13:39.916Z,23.90
2019-06-27T03:14:39.895Z,23.88
2019-06-27T03:16:34.799Z,23.80
2019-06-27T03:17:34.753Z,23.87
2019-06-27T03:19:49.452Z,23.91
2019-06-27T03:20:49.426Z,23.79
2019-06-27T03:22:44.313Z,23.80
2019-06-27T03:23:44.294Z,23.85
2019-06-27T03:25:40.670Z,23.79
2019-06-27T03:26:40.636Z,23.83
2019-06-27T03:28:50.852Z,23.83
2019-06-27T03:29:35.480Z,23.78
2019-06-27T03:31:29.850Z,23.70
2019-06-27T03:32:29.802Z,23.72
2019-06-27T03:34:24.697Z,23.83
2019-06-27T03:35:24.651Z,23.78
2019-06-27T03:37:19.526Z,23.76
2019-06-27T03:38:19.501Z,23.73
2019-06-27T03:40:14.871Z,23.73
2019-06-27T03:41:14.841Z,23.69
2019-06-27T03:43:09.719Z,23.72
2019-06-27T03:44:09.703Z,23.68
2019-06-27T03:46:05.102Z,23.73
2019-06-27T03:47:05.050Z,23.80
2019-06-27T03:48:59.953Z,23.73
2019-06-27T03:49:59.921Z,23.73
2019-06-27T03:51:56.218Z,23.76
2019-06-27T03:52:56.185Z,23.76
2019-06-27T03:54:51.071Z,23.72
2019-06-27T03:55:51.046Z,23.69
2019-06-27T03:57:45.958Z,23.55
2019-06-27T03:58:45.904Z,23.58
2019-06-27T04:00:40.790Z,23.60
2019-06-27T04:01:40.760Z,23.63
2019-06-27T04:03:36.501Z,23.54
2019-06-27T04:04:36.451Z,23.58
2019-06-27T04:06:31.328Z,23.54
2019-06-27T04:07:31.301Z,23.54
2019-06-27T04:09:26.190Z,23.63
2019-06-27T04:10:26.167Z,23.51
2019-06-27T04:12:21.040Z,23.54
2019-06-27T04:13:21.022Z,23.51
2019-06-27T04:15:15.904Z,23.55
2019-06-27T04:16:15.872Z,23.51
2019-06-27T04:18:10.759Z,23.36
2019-06-27T04:19:10.739Z,23.36
2019-06-27T04:21:05.638Z,23.31
2019-06-27T04:22:05.589Z,23.17
2019-06-27T04:24:01.286Z,23.17
2019-06-27T04:25:01.278Z,23.17
2019-06-27T04:26:56.768Z,23.10
2019-06-27T04:27:59.820Z,23.19
2019-06-27T04:29:52.578Z,23.02
2019-06-27T04:30:52.551Z,23.07
2019-06-27T04:32:47.464Z,22.98
2019-06-27T04:33:47.411Z,22.95
2019-06-27T04:35:42.447Z,22.90
2019-06-27T04:36:42.416Z,22.79
2019-06-27T04:38:38.310Z,22.82
2019-06-27T04:39:38.283Z,22.77
2019-06-27T04:41:33.150Z,22.92
2019-06-27T04:42:33.127Z,22.86
2019-06-27T04:44:28.031Z,22.90
2019-06-27T04:45:27.989Z,22.90
2019-06-27T04:47:22.523Z,23.02
2019-06-27T04:48:22.499Z,23.02
2019-06-27T04:50:17.405Z,23.09
2019-06-27T04:51:17.353Z,23.04
2019-06-27T04:53:13.232Z,23.09
2019-06-27T04:54:13.207Z,23.13
2019-06-27T04:56:09.097Z,23.15
2019-06-27T04:57:09.073Z,23.15
2019-06-27T04:59:03.951Z,23.13
2019-06-27T05:00:03.927Z,23.15
2019-06-27T05:01:58.803Z,23.10
2019-06-27T05:02:58.786Z,23.04
2019-06-27T05:04:54.689Z,22.97
2019-06-27T05:05:54.638Z,23.01
2019-06-27T05:07:49.510Z,23.00
2019-06-27T05:08:49.477Z,22.97
2019-06-27T05:10:44.357Z,22.91
2019-06-27T05:11:44.348Z,22.91
2019-06-27T05:13:39.222Z,22.86
2019-06-27T05:14:39.191Z,22.90
2019-06-27T05:16:35.077Z,22.68
2019-06-27T05:17:35.052Z,22.72
2019-06-27T05:19:30.385Z,22.75
2019-06-27T05:20:30.351Z,22.60
2019-06-27T05:22:25.226Z,22.61
2019-06-27T05:23:25.215Z,22.54
2019-06-27T05:25:20.113Z,22.64
2019-06-27T05:26:20.068Z,22.60
2019-06-27T05:28:14.943Z,22.73
2019-06-27T05:29:14.920Z,22.73
2019-06-27T05:31:09.401Z,22.73
2019-06-27T05:32:09.375Z,22.68
2019-06-27T05:34:03.356Z,22.62
2019-06-27T05:35:03.334Z,22.72
2019-06-27T05:36:58.222Z,22.70
2019-06-27T05:37:58.198Z,22.65
2019-06-27T05:39:53.081Z,22.83
2019-06-27T05:40:53.051Z,22.82
2019-06-27T05:42:48.962Z,22.83
2019-06-27T05:43:48.914Z,22.80
2019-06-27T05:45:43.784Z,22.88
2019-06-27T05:46:43.759Z,22.86
2019-06-27T05:48:39.854Z,22.85
2019-06-27T05:49:38.614Z,22.85
2019-06-27T05:51:33.496Z,22.88
2019-06-27T05:52:33.474Z,22.88
2019-06-27T05:54:28.290Z,22.97
2019-06-27T05:55:28.255Z,23.00
2019-06-27T05:57:23.634Z,22.95
2019-06-27T05:58:23.616Z,22.91
2019-06-27T06:00:28.339Z,22.92
2019-06-27T06:01:18.468Z,22.95
2019-06-27T06:03:12.576Z,23.15
2019-06-27T06:04:12.549Z,23.20
2019-06-27T06:06:08.946Z,23.32
2019-06-27T06:07:08.917Z,23.43
2019-06-27T06:09:04.245Z,23.58
2019-06-27T06:10:04.208Z,23.68
2019-06-27T06:11:59.087Z,23.85
2019-06-27T06:12:59.067Z,23.97
2019-06-27T06:14:53.947Z,24.06
2019-06-27T06:15:53.922Z,24.18
2019-06-27T06:16:53.916Z,24.16
2019-06-27T06:17:53.907Z,24.25
2019-06-27T06:18:53.902Z,24.35
2019-06-27T06:19:53.893Z,24.35
2019-06-27T06:20:53.894Z,24.37
2019-06-27T06:21:53.877Z,24.46
2019-06-27T06:22:53.874Z,24.55
2019-06-27T06:23:53.871Z,24.60
2019-06-27T06:24:53.858Z,24.67
2019-06-27T06:25:53.852Z,24.77
2019-06-27T06:26:53.844Z,24.80
2019-06-27T06:27:53.837Z,24.84
2019-06-27T06:28:53.859Z,24.85
2019-06-27T06:29:53.835Z,24.93
2019-06-27T06:30:53.819Z,24.99
2019-06-27T06:31:53.817Z,25.06
2019-06-27T06:32:53.809Z,25.14
2019-06-27T06:33:53.805Z,25.13
2019-06-27T06:34:53.827Z,25.21
2019-06-27T06:35:53.788Z,25.27
2019-06-27T06:36:53.783Z,25.33
2019-06-27T06:37:53.790Z,25.32
2019-06-27T06:38:53.771Z,25.46
2019-06-27T06:39:53.763Z,25.50
2019-06-27T06:40:53.759Z,25.54
2019-06-27T06:41:53.747Z,25.61
2019-06-27T06:42:57.899Z,25.69
2019-06-27T06:43:53.736Z,25.73
2019-06-27T06:44:53.734Z,25.80
2019-06-27T06:45:53.730Z,25.88
2019-06-27T06:46:53.717Z,25.94
2019-06-27T06:47:53.728Z,25.91
2019-06-27T06:48:53.716Z,26.07
2019-06-27T06:49:53.700Z,25.98
2019-06-27T06:50:53.700Z,26.01
2019-06-27T06:51:53.691Z,26.12
2019-06-27T06:52:53.686Z,26.10
2019-06-27T06:53:53.682Z,26.18
2019-06-27T06:54:53.674Z,26.28
2019-06-27T06:55:53.675Z,26.26
2019-06-27T06:56:53.683Z,26.30
2019-06-27T06:57:53.665Z,26.36
2019-06-27T06:58:53.651Z,26.48
2019-06-27T06:59:53.650Z,26.36
2019-06-27T07:01:01.507Z,26.50
2019-06-27T07:01:53.630Z,26.52
2019-06-27T07:02:53.627Z,26.55
2019-06-27T07:03:53.620Z,26.58
2019-06-27T07:04:53.611Z,26.60
2019-06-27T07:05:53.614Z,26.65
2019-06-27T07:06:53.601Z,26.67
2019-06-27T07:07:53.622Z,26.73
2019-06-27T07:08:53.595Z,26.77
2019-06-27T07:09:53.584Z,26.81
2019-06-27T07:10:53.589Z,26.92
2019-06-27T07:11:53.582Z,27.06
2019-06-27T07:12:53.573Z,26.94
2019-06-27T07:13:53.569Z,27.03
2019-06-27T07:14:53.565Z,26.97
2019-06-27T07:15:53.568Z,27.00
2019-06-27T07:16:53.550Z,27.07
2019-06-27T07:17:53.553Z,27.12
2019-06-27T07:18:53.537Z,27.22
2019-06-27T07:19:57.360Z,27.29
2019-06-27T07:20:53.541Z,27.27
2019-06-27T07:21:53.527Z,27.36
2019-06-27T07:22:53.513Z,27.32
2019-06-27T07:23:53.523Z,27.39
2019-06-27T07:24:53.512Z,27.50
2019-06-27T07:25:53.505Z,27.43
2019-06-27T07:26:53.497Z,27.46
2019-06-27T07:27:53.495Z,27.51
2019-06-27T07:28:53.515Z,27.66
2019-06-27T07:29:53.482Z,27.63
2019-06-27T07:30:53.472Z,27.72
2019-06-27T07:31:53.475Z,27.75
2019-06-27T07:32:53.477Z,27.88
2019-06-27T07:33:53.460Z,27.85
2019-06-27T07:34:53.455Z,27.87
2019-06-27T07:35:53.456Z,27.92
2019-06-27T07:36:53.447Z,28.00
2019-06-27T07:37:53.448Z,28.11
2019-06-27T07:38:53.441Z,28.03
2019-06-27T07:39:53.430Z,28.15
2019-06-27T07:40:53.427Z,28.15
2019-06-27T07:41:53.421Z,28.30
2019-06-27T07:42:53.423Z,28.24
2019-06-27T07:43:53.412Z,28.25
2019-06-27T07:44:53.410Z,28.30
2019-06-27T07:45:53.400Z,28.40
2019-06-27T07:46:53.399Z,28.33
2019-06-27T07:47:53.398Z,28.43
2019-06-27T07:48:53.389Z,28.49
2019-06-27T07:49:53.388Z,28.54
2019-06-27T07:50:53.379Z,28.49
2019-06-27T07:51:53.379Z,28.49
2019-06-27T07:52:53.380Z,28.54
2019-06-27T07:53:53.366Z,28.46
2019-06-27T07:54:53.371Z,28.43
2019-06-27T07:55:53.356Z,28.39
2019-06-27T07:56:53.355Z,28.44
2019-06-27T07:57:53.353Z,28.37
2019-06-27T07:58:53.351Z,28.40
2019-06-27T07:59:53.346Z,28.39
2019-06-27T08:00:53.334Z,28.34
2019-06-27T08:01:53.332Z,28.31
2019-06-27T08:02:53.332Z,28.31
2019-06-27T08:03:53.335Z,28.25
2019-06-27T08:04:53.320Z,28.30
2019-06-27T08:05:53.330Z,28.34
2019-06-27T08:06:53.308Z,28.34
2019-06-27T08:07:53.306Z,28.31
2019-06-27T08:08:53.306Z,28.39
2019-06-27T08:09:53.313Z,28.40
2019-06-27T08:10:53.291Z,28.40
2019-06-27T08:11:53.287Z,28.51
2019-06-27T08:12:53.289Z,28.46
2019-06-27T08:13:53.280Z,28.48
2019-06-27T08:14:53.287Z,28.59
2019-06-27T08:15:53.271Z,28.61
2019-06-27T08:16:53.269Z,28.70
2019-06-27T08:17:53.267Z,28.80
2019-06-27T08:18:53.259Z,28.76
2019-06-27T08:19:53.256Z,28.88
2019-06-27T08:20:53.261Z,28.92
2019-06-27T08:21:53.248Z,29.02
2019-06-27T08:22:53.239Z,29.06
2019-06-27T08:23:53.237Z,29.02
2019-06-27T08:24:53.230Z,29.02
2019-06-27T08:25:53.230Z,29.11
2019-06-27T08:26:53.221Z,29.15
2019-06-27T08:27:53.219Z,29.23
2019-06-27T08:28:53.213Z,29.21
2019-06-27T08:29:53.214Z,29.21
2019-06-27T08:30:53.207Z,29.26
2019-06-27T08:31:53.199Z,29.21
2019-06-27T08:32:53.203Z,29.15
2019-06-27T08:33:53.192Z,29.19
2019-06-27T08:34:53.193Z,29.21
2019-06-27T08:35:53.188Z,29.21
2019-06-27T08:36:53.189Z,29.26
2019-06-27T08:37:53.184Z,29.30
2019-06-27T08:38:53.179Z,29.34
2019-06-27T08:39:53.177Z,29.42
2019-06-27T08:40:53.167Z,29.31
2019-06-27T08:41:53.159Z,29.37
2019-06-27T08:42:53.157Z,29.37
2019-06-27T08:43:53.155Z,29.39
2019-06-27T08:44:53.148Z,29.37
2019-06-27T08:45:53.152Z,29.24
2019-06-27T08:46:53.141Z,29.31
2019-06-27T08:47:53.142Z,29.34
2019-06-27T08:48:53.138Z,29.34
2019-06-27T08:49:53.138Z,29.36
2019-06-27T08:50:53.122Z,29.27
2019-06-27T08:51:53.125Z,29.34
2019-06-27T08:52:53.118Z,29.33
2019-06-27T08:53:53.117Z,29.46
2019-06-27T08:54:53.172Z,29.41
2019-06-27T08:55:53.115Z,29.39
2019-06-27T08:56:53.106Z,29.39
2019-06-27T08:57:53.097Z,29.42
2019-06-27T08:58:53.089Z,29.43
2019-06-27T08:59:53.097Z,29.52
2019-06-27T09:00:53.088Z,29.49
2019-06-27T09:02:07.425Z,29.46
2019-06-27T09:02:53.084Z,29.61
2019-06-27T09:03:53.073Z,29.57
2019-06-27T09:04:53.071Z,29.49
2019-06-27T09:05:53.071Z,29.53
2019-06-27T09:06:53.072Z,29.58
2019-06-27T09:07:53.051Z,29.57
2019-06-27T09:08:53.056Z,29.48
2019-06-27T09:09:53.058Z,29.53
2019-06-27T09:10:53.043Z,29.43
2019-06-27T09:11:53.040Z,29.53
2019-06-27T09:12:53.047Z,29.57
2019-06-27T09:13:53.057Z,29.42
2019-06-27T09:14:53.035Z,29.46
2019-06-27T09:15:53.030Z,29.46
2019-06-27T09:16:53.021Z,29.49
2019-06-27T09:17:53.024Z,29.49
2019-06-27T09:18:53.024Z,29.46
2019-06-27T09:19:53.017Z,29.58
2019-06-27T09:20:53.009Z,29.65
2019-06-27T09:21:53.012Z,29.64
2019-06-27T09:22:53.002Z,29.61
2019-06-27T09:23:52.999Z,29.53
2019-06-27T09:24:52.996Z,29.57
2019-06-27T09:25:52.989Z,29.65
2019-06-27T09:26:52.988Z,29.76
2019-06-27T09:27:52.984Z,29.87
2019-06-27T09:28:52.981Z,29.92
2019-06-27T09:29:52.979Z,29.97
2019-06-27T09:30:52.975Z,30.08
2019-06-27T09:31:52.973Z,30.15
2019-06-27T09:32:52.968Z,30.11
2019-06-27T09:33:52.965Z,29.94
2019-06-27T09:34:52.960Z,29.97
2019-06-27T09:35:52.960Z,29.89
2019-06-27T09:36:52.953Z,30.00
2019-06-27T09:37:52.967Z,30.00
2019-06-27T09:38:52.939Z,30.08
2019-06-27T09:39:52.941Z,30.13
2019-06-27T09:40:52.936Z,30.08
2019-06-27T09:41:52.941Z,30.07
2019-06-27T09:42:52.923Z,30.17
2019-06-27T09:43:52.926Z,30.22
2019-06-27T09:44:52.926Z,30.26
2019-06-27T09:45:52.919Z,30.27
2019-06-27T09:46:52.911Z,30.37
2019-06-27T09:47:52.907Z,30.38
2019-06-27T09:48:52.909Z,30.39
2019-06-27T09:49:52.903Z,30.39
2019-06-27T09:50:52.909Z,30.37
2019-06-27T09:51:52.898Z,30.42
2019-06-27T09:52:52.890Z,30.37
2019-06-27T09:53:52.889Z,30.35
2019-06-27T09:54:52.889Z,30.38
2019-06-27T09:55:52.879Z,30.39
2019-06-27T09:56:52.881Z,30.49
2019-06-27T09:57:52.876Z,30.53
2019-06-27T09:58:52.872Z,30.57
2019-06-27T09:59:52.882Z,30.61
2019-06-27T10:00:52.869Z,30.57
2019-06-27T10:01:52.874Z,30.54
2019-06-27T10:02:52.859Z,30.54
2019-06-27T10:03:52.855Z,30.53
2019-06-27T10:04:52.854Z,30.64
2019-06-27T10:05:52.851Z,30.58
2019-06-27T10:06:52.849Z,30.69
2019-06-27T10:07:52.841Z,30.62
2019-06-27T10:08:52.837Z,30.64
2019-06-27T10:09:52.856Z,30.82
2019-06-27T10:10:52.861Z,30.88
2019-06-27T10:11:53.503Z,30.92
2019-06-27T10:12:52.833Z,30.86
2019-06-27T10:13:52.826Z,30.89
2019-06-27T10:14:52.819Z,30.92
2019-06-27T10:15:52.817Z,30.89
2019-06-27T10:16:52.813Z,30.86
2019-06-27T10:17:52.812Z,30.94
2019-06-27T10:18:52.809Z,30.98
2019-06-27T10:19:52.824Z,30.91
2019-06-27T10:20:52.806Z,30.97
2019-06-27T10:21:52.800Z,31.01
2019-06-27T10:22:52.792Z,31.06
2019-06-27T10:23:52.791Z,31.04
2019-06-27T10:24:52.788Z,31.06
2019-06-27T10:25:52.788Z,31.07
2019-06-27T10:26:52.779Z,31.14
2019-06-27T10:27:52.777Z,31.12
2019-06-27T10:28:52.778Z,31.12
2019-06-27T10:29:52.786Z,31.20
2019-06-27T10:30:52.775Z,31.19
2019-06-27T10:31:52.767Z,31.20
2019-06-27T10:32:58.813Z,31.16
2019-06-27T10:33:52.766Z,31.13
2019-06-27T10:34:52.756Z,31.13
2019-06-27T10:35:52.768Z,31.13
2019-06-27T10:36:52.755Z,31.12
2019-06-27T10:37:52.754Z,31.20
2019-06-27T10:38:52.755Z,31.17
2019-06-27T10:39:52.746Z,31.26
2019-06-27T10:40:52.755Z,31.39
2019-06-27T10:41:52.742Z,31.54
2019-06-27T10:42:52.742Z,31.53
2019-06-27T10:43:52.741Z,31.57
2019-06-27T10:44:52.730Z,31.72
2019-06-27T10:45:52.730Z,31.76
2019-06-27T10:46:52.726Z,31.80
2019-06-27T10:47:52.725Z,31.78
2019-06-27T10:48:52.719Z,31.73
2019-06-27T10:49:52.719Z,31.80
2019-06-27T10:50:54.770Z,31.78
2019-06-27T10:51:52.800Z,31.80
2019-06-27T10:52:52.717Z,31.92
2019-06-27T10:53:52.720Z,31.93
2019-06-27T10:54:52.703Z,31.93
2019-06-27T10:55:52.706Z,32.01
2019-06-27T10:56:52.697Z,32.03
2019-06-27T10:57:52.697Z,32.13
2019-06-27T10:58:52.697Z,32.08
2019-06-27T10:59:52.695Z,32.11
2019-06-27T11:00:52.686Z,32.21
2019-06-27T11:01:52.697Z,32.13
2019-06-27T11:02:52.682Z,32.28
2019-06-27T11:03:52.683Z,32.30
2019-06-27T11:04:52.686Z,32.33
2019-06-27T11:05:52.669Z,32.30
2019-06-27T11:06:52.670Z,32.38
2019-06-27T11:07:52.665Z,32.29
2019-06-27T11:08:52.671Z,32.35
2019-06-27T11:09:52.674Z,32.40
2019-06-27T11:10:52.664Z,32.37
2019-06-27T11:11:52.807Z,32.45
2019-06-27T11:12:52.657Z,32.44
2019-06-27T11:13:58.941Z,32.50
2019-06-27T11:14:59.260Z,32.44
2019-06-27T11:15:52.658Z,32.44
2019-06-27T11:16:52.656Z,32.50
2019-06-27T11:17:52.653Z,32.52
2019-06-27T11:18:52.635Z,32.44
2019-06-27T11:19:53.030Z,32.56
2019-06-27T11:20:52.684Z,32.48
2019-06-27T11:21:52.635Z,32.51
2019-06-27T11:22:52.638Z,32.66
2019-06-27T11:23:52.626Z,32.66
2019-06-27T11:24:52.629Z,32.67
2019-06-27T11:25:52.627Z,32.72
2019-06-27T11:26:52.628Z,32.77
2019-06-27T11:27:52.620Z,32.63
2019-06-27T11:28:52.618Z,32.78
2019-06-27T11:29:52.614Z,32.77
2019-06-27T11:30:52.626Z,32.77
2019-06-27T11:31:52.628Z,32.70
2019-06-27T11:32:52.632Z,32.77
2019-06-27T11:33:52.606Z,32.77
2019-06-27T11:34:52.606Z,32.77
2019-06-27T11:35:52.603Z,32.75
2019-06-27T11:36:52.605Z,32.87
2019-06-27T11:37:52.604Z,32.85
2019-06-27T11:38:52.601Z,32.84
2019-06-27T11:39:52.597Z,32.87
2019-06-27T11:40:52.592Z,32.93
2019-06-27T11:41:52.582Z,33.00
2019-06-27T11:42:52.585Z,32.99
2019-06-27T11:43:52.589Z,32.96
2019-06-27T11:44:52.588Z,33.00
2019-06-27T11:45:52.591Z,32.96
2019-06-27T11:46:52.579Z,32.97
2019-06-27T11:47:52.581Z,33.00
2019-06-27T11:48:52.575Z,33.00
2019-06-27T11:49:52.578Z,33.07
2019-06-27T11:50:52.864Z,33.06
2019-06-27T11:51:52.577Z,33.18
2019-06-27T11:52:52.566Z,33.22
2019-06-27T11:53:52.584Z,33.18
2019-06-27T11:54:52.562Z,33.16
2019-06-27T11:55:52.602Z,33.18
2019-06-27T11:56:52.565Z,33.19
2019-06-27T11:57:56.397Z,33.14
2019-06-27T11:58:52.561Z,33.18
2019-06-27T11:59:52.563Z,33.21
2019-06-27T12:00:52.554Z,33.19
2019-06-27T12:01:52.549Z,33.29
2019-06-27T12:02:52.566Z,33.32
2019-06-27T12:03:52.546Z,33.34
2019-06-27T12:04:52.548Z,33.32
2019-06-27T12:05:52.551Z,33.35
2019-06-27T12:06:52.550Z,33.21
2019-06-27T12:07:52.541Z,33.34
2019-06-27T12:08:52.545Z,33.32
2019-06-27T12:09:52.541Z,33.31
2019-06-27T12:10:52.537Z,33.31
2019-06-27T12:11:52.563Z,33.35
2019-06-27T12:12:52.556Z,33.42
2019-06-27T12:13:52.529Z,33.39
2019-06-27T12:14:52.530Z,33.42
2019-06-27T12:15:52.527Z,33.41
2019-06-27T12:16:52.525Z,33.41
2019-06-27T12:17:52.529Z,33.44
2019-06-27T12:18:52.530Z,33.45
2019-06-27T12:19:52.528Z,33.42
2019-06-27T12:20:52.522Z,33.47
2019-06-27T12:21:52.518Z,33.38
2019-06-27T12:22:52.518Z,33.41
2019-06-27T12:23:52.517Z,33.42
2019-06-27T12:24:52.516Z,33.44
2019-06-27T12:25:52.512Z,33.65
2019-06-27T12:26:52.507Z,33.60
2019-06-27T12:27:52.534Z,33.68
2019-06-27T12:28:52.507Z,33.68
2019-06-27T12:29:52.504Z,33.57
2019-06-27T12:30:52.506Z,33.65
2019-06-27T12:31:52.506Z,33.63
2019-06-27T12:32:53.115Z,33.75
2019-06-27T12:34:06.488Z,33.71
2019-06-27T12:34:52.499Z,33.69
2019-06-27T12:35:52.498Z,33.60
2019-06-27T12:36:52.501Z,33.61
2019-06-27T12:37:52.494Z,33.59
2019-06-27T12:38:52.494Z,33.76
2019-06-27T12:39:52.492Z,33.78
2019-06-27T12:40:52.486Z,33.72
2019-06-27T12:41:52.499Z,33.82
2019-06-27T12:42:52.497Z,33.69
2019-06-27T12:43:52.485Z,33.65
2019-06-27T12:44:52.490Z,33.57
2019-06-27T12:45:52.483Z,33.65
2019-06-27T12:46:52.479Z,33.60
2019-06-27T12:47:52.480Z,33.63
2019-06-27T12:48:52.483Z,33.61
2019-06-27T12:50:02.394Z,33.66
2019-06-27T12:50:52.481Z,33.60
2019-06-27T12:51:52.490Z,33.79
2019-06-27T12:52:52.486Z,33.78
2019-06-27T12:53:55.669Z,33.79
2019-06-27T12:54:52.509Z,33.76
2019-06-27T12:55:52.505Z,33.65
2019-06-27T12:56:52.475Z,33.75
2019-06-27T12:57:52.467Z,33.71
2019-06-27T12:58:52.464Z,33.71
2019-06-27T12:59:52.467Z,33.68
2019-06-27T13:00:52.462Z,33.71
2019-06-27T13:01:52.467Z,33.72
2019-06-27T13:02:52.504Z,33.73
2019-06-27T13:03:52.463Z,33.72
2019-06-27T13:04:52.460Z,33.84
2019-06-27T13:05:52.463Z,33.76
2019-06-27T13:06:52.457Z,33.82
2019-06-27T13:07:52.465Z,33.75
2019-06-27T13:08:52.456Z,33.61
2019-06-27T13:09:52.460Z,33.71
2019-06-27T13:10:52.456Z,33.72
2019-06-27T13:11:52.453Z,33.63
2019-06-27T13:12:52.449Z,33.69
2019-06-27T13:13:52.449Z,33.68
2019-06-27T13:14:52.441Z,33.66
2019-06-27T13:15:52.452Z,33.69
2019-06-27T13:16:52.447Z,33.68
2019-06-27T13:17:52.443Z,33.69
2019-06-27T13:18:52.445Z,33.78
2019-06-27T13:19:52.447Z,33.87
2019-06-27T13:20:58.018Z,33.84
2019-06-27T13:21:52.444Z,33.82
2019-06-27T13:22:52.443Z,33.76
2019-06-27T13:23:52.447Z,33.84
2019-06-27T13:24:52.441Z,33.82
2019-06-27T13:25:52.451Z,33.84
2019-06-27T13:26:52.436Z,33.98
2019-06-27T13:27:52.440Z,33.95
2019-06-27T13:28:52.441Z,34.03
2019-06-27T13:29:52.433Z,34.10
2019-06-27T13:30:52.429Z,34.08
2019-06-27T13:31:52.437Z,34.16
2019-06-27T13:32:52.455Z,34.13
2019-06-27T13:33:52.461Z,34.15
2019-06-27T13:34:52.431Z,34.13
2019-06-27T13:35:52.435Z,34.10
2019-06-27T13:36:52.427Z,34.02
2019-06-27T13:37:52.431Z,34.02
2019-06-27T13:38:52.422Z,34.06
2019-06-27T13:39:52.427Z,34.08
2019-06-27T13:40:52.420Z,34.10
2019-06-27T13:41:52.429Z,34.13
2019-06-27T13:42:55.566Z,34.08
2019-06-27T13:43:52.431Z,34.21
2019-06-27T13:44:52.417Z,34.28
2019-06-27T13:45:52.415Z,34.16
2019-06-27T13:46:52.413Z,34.28
2019-06-27T13:47:52.419Z,34.24
2019-06-27T13:48:52.411Z,34.25
2019-06-27T13:49:52.428Z,34.25
2019-06-27T13:50:52.417Z,34.19
2019-06-27T13:51:52.415Z,34.17
2019-06-27T13:52:54.760Z,34.19
2019-06-27T13:53:52.412Z,34.22
2019-06-27T13:54:52.413Z,34.13
2019-06-27T13:55:52.409Z,34.17
2019-06-27T13:56:52.408Z,34.21
2019-06-27T13:57:52.423Z,34.16
2019-06-27T13:58:52.404Z,34.19
2019-06-27T13:59:52.410Z,34.16
2019-06-27T14:00:52.403Z,34.28
2019-06-27T14:01:52.406Z,34.21
2019-06-27T14:02:52.406Z,34.24
2019-06-27T14:03:52.401Z,34.28
2019-06-27T14:04:57.050Z,34.31
2019-06-27T14:05:52.403Z,34.34
2019-06-27T14:06:52.396Z,34.39
2019-06-27T14:07:52.398Z,34.49
2019-06-27T14:08:52.403Z,34.52
2019-06-27T14:09:56.942Z,34.53
2019-06-27T14:10:52.408Z,34.32
2019-06-27T14:11:52.401Z,34.35
2019-06-27T14:12:52.396Z,34.37
2019-06-27T14:13:52.396Z,34.31
2019-06-27T14:14:59.609Z,34.30
2019-06-27T14:15:52.429Z,34.25
2019-06-27T14:16:52.393Z,34.28
2019-06-27T14:17:52.391Z,34.35
2019-06-27T14:18:52.394Z,34.25
2019-06-27T14:19:52.392Z,34.28
2019-06-27T14:20:52.395Z,34.22
2019-06-27T14:21:52.394Z,34.22
2019-06-27T14:22:52.392Z,34.24
2019-06-27T14:23:52.390Z,34.24
2019-06-27T14:24:52.391Z,34.28
2019-06-27T14:25:52.385Z,34.27
2019-06-27T14:26:52.384Z,34.24
2019-06-27T14:27:52.384Z,34.19
2019-06-27T14:28:52.386Z,34.37
2019-06-27T14:29:52.379Z,34.30
2019-06-27T14:30:52.381Z,34.34
2019-06-27T14:31:52.385Z,34.32
2019-06-27T14:32:53.563Z,34.34
2019-06-27T14:33:52.383Z,34.37
2019-06-27T14:34:52.380Z,34.47
2019-06-27T14:35:52.380Z,34.54
2019-06-27T14:36:54.414Z,34.50
2019-06-27T14:37:52.378Z,34.53
2019-06-27T14:38:52.382Z,34.54
2019-06-27T14:39:56.335Z,34.53
2019-06-27T14:40:52.379Z,34.47
2019-06-27T14:41:52.481Z,34.56
2019-06-27T14:42:52.375Z,34.46
2019-06-27T14:43:52.379Z,34.52
2019-06-27T14:44:52.375Z,34.42